Time;durP1;ratioP1;P1;durP2;ratioP2;P2;SDS_P1;SDS_P2;PMS_P1;PMS_P2;Temp;Humidity;BMP_temperature;BMP_pressure;BME280_temperature;BME280_humidity;BME280_pressure;Samples;Min_cycle;Max_cycle;Signal;HPM_P1;HPM_P2
2022/03/15 00:01:08;;;;;;;9.35;4.15;;;;;;;5.05;nan;102641.88;5056190;28;20376;-53
2022/03/15 00:03:33;;;;;;;10.65;4.22;;;;;;;5.36;nan;102699.06;5074156;28;20047;-53
2022/03/15 00:05:59;;;;;;;12.43;4.35;;;;;;;4.98;nan;102635.69;5056344;28;20028;-51
2022/03/15 00:08:26;;;;;;;9.38;4.97;;;;;;;4.92;nan;102627.75;5056271;28;20544;-54
2022/03/15 00:10:54;;;;;;;10.40;4.28;;;;;;;4.91;nan;102630.31;5072903;28;20037;-50
2022/03/15 00:13:20;;;;;;;8.77;4.22;;;;;;;5.33;nan;102709.44;5073882;28;20038;-52
2022/03/15 00:15:46;;;;;;;10.40;4.60;;;;;;;5.22;nan;102681.38;5073863;28;20044;-48
2022/03/15 00:18:11;;;;;;;11.07;4.85;;;;;;;5.33;nan;102692.88;5055966;28;20032;-49
2022/03/15 00:20:37;;;;;;;9.63;3.95;;;;;;;4.88;nan;102609.38;5073764;28;20055;-50
2022/03/15 00:23:02;;;;;;;7.13;4.43;;;;;;;5.27;nan;102685.81;5074143;28;20036;-51
2022/03/15 00:25:28;;;;;;;11.18;4.45;;;;;;;5.24;nan;102721.44;5055772;28;20068;-51
2022/03/15 00:27:54;;;;;;;10.02;3.95;;;;;;;5.05;nan;102662.75;5073390;28;20056;-50
2022/03/15 00:30:21;;;;;;;8.38;3.95;;;;;;;4.59;nan;102592.28;5073498;28;20035;-49
2022/03/15 00:32:46;;;;;;;12.25;3.70;;;;;;;4.86;nan;102647.59;5073681;28;20039;-52
2022/03/15 00:35:25;;;;;;;10.18;3.85;;;;;;;4.62;nan;102621.03;5072589;28;20036;-52
2022/03/15 00:37:52;;;;;;;6.57;3.42;;;;;;;4.94;nan;102695.59;5057640;28;20048;-54
2022/03/15 00:40:18;;;;;;;10.85;4.65;;;;;;;4.93;nan;102701.69;5055094;28;20036;-49
2022/03/15 00:42:48;;;;;;;7.90;4.22;;;;;;;4.89;nan;102685.09;5072242;28;20044;-51
2022/03/15 00:45:14;;;;;;;12.77;4.45;;;;;;;4.33;nan;102595.25;5055393;28;20032;-55
2022/03/15 00:47:39;;;;;;;11.95;4.53;;;;;;;4.78;nan;102685.72;5073643;28;20044;-51
2022/03/15 00:50:05;;;;;;;9.15;4.50;;;;;;;4.36;nan;102618.78;5055488;28;20540;-50
2022/03/15 00:52:30;;;;;;;6.45;3.88;;;;;;;4.34;nan;102612.66;5073255;28;20182;-54
2022/03/15 00:54:56;;;;;;;6.90;4.18;;;;;;;4.16;nan;102588.78;5073390;28;20423;-56
2022/03/15 00:57:21;;;;;;;11.93;4.40;;;;;;;4.29;nan;102618.63;5073119;28;20040;-52
2022/03/15 00:59:47;;;;;;;15.20;4.13;;;;;;;4.29;nan;102616.88;5073088;28;20032;-51
2022/03/15 01:02:12;;;;;;;9.88;4.35;;;;;;;4.60;nan;102675.78;5055483;28;20050;-56
2022/03/15 01:04:37;;;;;;;9.60;3.70;;;;;;;4.60;nan;102678.38;5062655;28;20044;-52
2022/03/15 01:07:03;;;;;;;8.48;4.05;;;;;;;4.15;nan;102607.88;5071785;28;20028;-52
2022/03/15 01:09:28;;;;;;;11.43;4.53;;;;;;;4.23;nan;102621.94;5066202;28;20033;-52
2022/03/15 01:11:54;;;;;;;9.05;4.55;;;;;;;4.11;nan;102594.75;5052715;28;20087;-50
2022/03/15 01:14:20;;;;;;;7.80;3.92;;;;;;;4.50;nan;102672.09;5052654;28;20079;-52
2022/03/15 01:16:45;;;;;;;10.68;4.47;;;;;;;4.49;nan;102665.09;5053043;28;20462;-52
2022/03/15 01:19:10;;;;;;;7.50;4.15;;;;;;;4.18;nan;102605.34;5035126;28;20115;-49
2022/03/15 01:21:38;;;;;;;8.40;4.65;;;;;;;4.06;nan;102581.59;5034839;28;20252;-52
2022/03/15 01:24:07;;;;;;;9.73;4.47;;;;;;;4.43;nan;102638.03;5052605;28;20029;-53
2022/03/15 01:26:33;;;;;;;12.30;4.78;;;;;;;4.49;nan;102656.44;5052613;28;20040;-55
2022/03/15 01:28:59;;;;;;;11.25;5.00;;;;;;;4.13;nan;102582.63;5052397;28;20045;-47
2022/03/15 01:31:25;;;;;;;10.20;4.80;;;;;;;4.41;nan;102624.94;5052620;28;20095;-50
2022/03/15 01:33:50;;;;;;;8.43;5.20;;;;;;;4.53;nan;102640.84;5052521;28;20484;-50
2022/03/15 01:36:15;;;;;;;10.75;5.50;;;;;;;4.53;nan;102637.38;5052374;28;20442;-52
2022/03/15 01:38:40;;;;;;;10.73;5.68;;;;;;;4.49;nan;102628.59;5051088;28;20044;-54
2022/03/15 01:41:06;;;;;;;11.98;5.15;;;;;;;4.50;nan;102629.47;5034431;28;20389;-54
2022/03/15 01:43:33;;;;;;;12.13;5.40;;;;;;;4.09;nan;102562.56;5017821;28;20151;-52
2022/03/15 01:45:59;;;;;;;8.35;5.13;;;;;;;4.41;nan;102616.25;5035124;28;20123;-48
2022/03/15 01:48:24;;;;;;;10.15;5.28;;;;;;;4.05;nan;102553.81;5034798;28;20475;-52
2022/03/15 01:50:49;;;;;;;8.48;5.93;;;;;;;4.50;nan;102626.88;5033974;28;20033;-51
2022/03/15 01:53:15;;;;;;;12.25;5.10;;;;;;;4.01;nan;102543.28;5058668;28;20036;-51
2022/03/15 01:55:40;;;;;;;10.77;6.35;;;;;;;4.46;nan;102607.69;5072216;28;20055;-52
2022/03/15 01:58:06;;;;;;;14.57;5.93;;;;;;;4.22;nan;102567.19;5034000;28;20036;-52
2022/03/15 02:00:32;;;;;;;13.05;6.63;;;;;;;4.58;nan;102620.09;5052270;28;20040;-49
2022/03/15 02:02:57;;;;;;;8.93;5.78;;;;;;;4.54;nan;102611.34;5052238;28;20466;-52
2022/03/15 02:05:23;;;;;;;8.45;5.75;;;;;;;4.66;nan;102618.53;5052072;28;20033;-50
2022/03/15 02:07:48;;;;;;;16.83;6.90;;;;;;;4.27;nan;102542.09;5051885;28;20389;-51
2022/03/15 02:10:14;;;;;;;13.75;6.15;;;;;;;4.58;nan;102601.84;5052093;28;20435;-52
2022/03/15 02:12:39;;;;;;;15.38;6.78;;;;;;;4.69;nan;102591.63;5051876;28;20033;-51
2022/03/15 02:15:06;;;;;;;13.15;6.90;;;;;;;4.77;nan;102601.34;5052080;28;20044;-50
2022/03/15 02:17:32;;;;;;;11.38;6.90;;;;;;;4.79;nan;102607.47;5051834;28;20404;-50
2022/03/15 02:19:57;;;;;;;13.45;7.28;;;;;;;4.81;nan;102604.91;5051982;28;20032;-52
2022/03/15 02:22:23;;;;;;;14.00;7.70;;;;;;;4.85;nan;102598.88;5034061;28;20036;-48
2022/03/15 02:24:48;;;;;;;13.77;7.05;;;;;;;4.44;nan;102525.94;5051682;28;20413;-53
2022/03/15 02:27:15;;;;;;;10.75;7.30;;;;;;;4.77;nan;102582.22;5051507;28;20091;-51
2022/03/15 02:29:40;;;;;;;15.05;7.75;;;;;;;4.92;nan;102595.53;5052073;28;20044;-50
2022/03/15 02:32:07;;;;;;;13.25;7.30;;;;;;;4.89;nan;102591.16;5033896;28;20037;-54
2022/03/15 02:34:33;;;;;;;15.55;8.20;;;;;;;4.85;nan;102583.22;5051678;28;20060;-52
2022/03/15 02:36:58;;;;;;;13.07;7.68;;;;;;;4.91;nan;102597.28;5051639;28;20115;-52
2022/03/15 02:39:23;;;;;;;11.07;7.75;;;;;;;4.92;nan;102603.38;5051757;28;20025;-54
2022/03/15 02:41:49;;;;;;;13.25;8.77;;;;;;;4.82;nan;102575.34;5051455;28;20162;-51
2022/03/15 02:44:14;;;;;;;17.23;8.75;;;;;;;4.80;nan;102567.50;5051137;28;20033;-52
2022/03/15 02:46:39;;;;;;;11.75;7.05;;;;;;;4.59;nan;102521.84;5071633;28;20033;-54
2022/03/15 02:49:06;;;;;;;18.83;7.95;;;;;;;4.88;nan;102571.13;5071724;28;20199;-51
2022/03/15 02:51:31;;;;;;;15.82;8.05;;;;;;;4.88;nan;102581.56;5053927;28;20422;-55
2022/03/15 02:53:57;;;;;;;13.70;8.18;;;;;;;4.86;nan;102582.38;5071576;28;20036;-52
2022/03/15 02:56:23;;;;;;;16.23;8.40;;;;;;;4.84;nan;102578.88;5053738;28;20040;-49
2022/03/15 02:58:48;;;;;;;14.13;7.88;;;;;;;4.83;nan;102561.44;5059962;28;20029;-53
2022/03/15 03:01:14;;;;;;;10.57;7.65;;;;;;;4.79;nan;102560.50;5051344;28;20142;-54
2022/03/15 03:03:39;;;;;;;14.13;8.00;;;;;;;4.62;nan;102538.44;5054041;28;20025;-54
2022/03/15 03:06:05;;;;;;;14.20;7.93;;;;;;;4.78;nan;102574.44;5055166;28;20029;-50
2022/03/15 03:08:31;;;;;;;13.95;8.05;;;;;;;4.80;nan;102577.94;5037261;28;20029;-52
2022/03/15 03:10:59;;;;;;;15.65;8.88;;;;;;;4.38;nan;102498.84;5037341;28;20036;-53
2022/03/15 03:13:27;;;;;;;13.88;9.00;;;;;;;4.84;nan;102573.66;5055351;28;20021;-52
2022/03/15 03:15:59;;;;;;;17.35;8.77;;;;;;;4.50;nan;102502.59;5054186;28;20028;-52
2022/03/15 03:18:29;;;;;;;11.55;8.15;;;;;;;4.88;nan;102571.13;5037253;28;20490;-49
2022/03/15 03:20:55;;;;;;;15.07;8.98;;;;;;;4.82;nan;102555.34;5055105;28;20087;-53
2022/03/15 03:23:21;;;;;;;23.27;9.38;;;;;;;4.80;nan;102566.59;5054777;28;20415;-50
2022/03/15 03:25:46;;;;;;;20.50;10.20;;;;;;;4.62;nan;102514.09;5054636;28;20075;-49
2022/03/15 03:28:13;;;;;;;16.58;9.13;;;;;;;4.94;nan;102554.69;5050136;28;20056;-49
2022/03/15 03:30:45;;;;;;;15.55;10.73;;;;;;;4.94;nan;102559.91;5035085;28;20393;-47
2022/03/15 03:33:10;;;;;;;17.58;10.45;;;;;;;4.94;nan;102565.13;5045942;28;20036;-53
2022/03/15 03:35:36;;;;;;;19.77;10.63;;;;;;;4.85;nan;102550.19;5054649;28;20491;-50
2022/03/15 03:38:01;;;;;;;19.15;11.70;;;;;;;4.99;nan;102559.13;5053262;28;20037;-54
2022/03/15 03:40:27;;;;;;;19.40;11.63;;;;;;;4.97;nan;102544.31;5054662;28;20096;-50
2022/03/15 03:42:52;;;;;;;20.80;12.43;;;;;;;5.05;nan;102554.03;5053394;28;20028;-53
2022/03/15 03:45:17;;;;;;;22.27;13.60;;;;;;;5.07;nan;102549.72;5054269;28;20035;-53
2022/03/15 03:47:43;;;;;;;17.25;11.80;;;;;;;4.63;nan;102472.41;5054398;28;20111;-51
2022/03/15 03:50:09;;;;;;;22.70;13.45;;;;;;;5.02;nan;102543.53;5053134;28;20484;-54
2022/03/15 03:52:35;;;;;;;28.60;13.07;;;;;;;4.99;nan;102535.66;5054293;28;20079;-53
2022/03/15 03:55:00;;;;;;;21.83;13.20;;;;;;;4.72;nan;102484.72;5054333;28;20029;-53
2022/03/15 03:57:26;;;;;;;21.13;12.63;;;;;;;4.84;nan;102505.81;5053774;28;20197;-49
2022/03/15 03:59:51;;;;;;;22.00;13.45;;;;;;;4.66;nan;102468.97;5033017;28;20124;-50
2022/03/15 04:02:16;;;;;;;24.52;14.35;;;;;;;5.14;nan;102553.31;5034332;28;20033;-53
2022/03/15 04:04:42;;;;;;;21.17;13.70;;;;;;;5.12;nan;102555.03;5034411;28;20185;-50
2022/03/15 04:07:11;;;;;;;23.20;14.35;;;;;;;4.70;nan;102479.47;5033949;28;20034;-52
2022/03/15 04:09:37;;;;;;;23.08;14.63;;;;;;;4.58;nan;102457.53;5034305;28;20112;-54
2022/03/15 04:12:06;;;;;;;26.25;14.90;;;;;;;5.13;nan;102546.34;5032983;28;20033;-53
2022/03/15 04:14:32;;;;;;;26.55;14.75;;;;;;;4.86;nan;102499.78;5033662;28;20037;-52
2022/03/15 04:16:58;;;;;;;22.13;13.55;;;;;;;5.13;nan;102543.72;5049367;28;20079;-54
2022/03/15 04:19:23;;;;;;;23.80;15.35;;;;;;;5.02;nan;102527.88;5033851;28;20116;-47
2022/03/15 04:21:48;;;;;;;22.20;13.63;;;;;;;5.14;nan;102563.75;5033824;28;20123;-49
2022/03/15 04:24:14;;;;;;;21.67;15.55;;;;;;;5.15;nan;102548.97;5052411;28;20468;-53
2022/03/15 04:26:41;;;;;;;21.85;14.48;;;;;;;5.12;nan;102534.13;5059503;28;20052;-52
2022/03/15 04:29:07;;;;;;;23.33;15.38;;;;;;;4.78;nan;102472.69;5055962;28;20480;-51
2022/03/15 04:31:32;;;;;;;24.35;14.88;;;;;;;4.86;nan;102486.72;5073590;28;20028;-52
2022/03/15 04:33:58;;;;;;;26.48;15.23;;;;;;;5.17;nan;102542.91;5073582;28;20041;-55
2022/03/15 04:36:23;;;;;;;25.90;15.70;;;;;;;5.17;nan;102540.31;5073266;28;20041;-51
2022/03/15 04:38:48;;;;;;;25.02;13.93;;;;;;;5.17;nan;102540.31;5073484;28;20127;-52
2022/03/15 04:41:14;;;;;;;21.55;14.63;;;;;;;5.13;nan;102546.34;5073430;28;20128;-52
2022/03/15 04:43:39;;;;;;;28.05;15.65;;;;;;;5.16;nan;102532.47;5073312;28;20438;-53
2022/03/15 04:46:05;;;;;;;25.38;15.98;;;;;;;5.19;nan;102548.19;5073313;28;20072;-53
2022/03/15 04:48:31;;;;;;;24.98;14.90;;;;;;;5.14;nan;102521.13;5073395;28;20060;-52
2022/03/15 04:50:57;;;;;;;24.67;15.27;;;;;;;4.86;nan;102478.91;5055358;28;20059;-50
2022/03/15 04:53:22;;;;;;;24.98;15.98;;;;;;;5.19;nan;102525.56;5073349;28;20037;-54
2022/03/15 04:55:48;;;;;;;21.00;15.52;;;;;;;5.17;nan;102523.78;5073333;28;20040;-50
2022/03/15 04:58:14;;;;;;;28.00;16.42;;;;;;;5.17;nan;102529.00;5035070;28;20033;-54
2022/03/15 05:00:40;;;;;;;21.52;15.98;;;;;;;5.21;nan;102522.97;5035435;28;20091;-52
2022/03/15 05:03:06;;;;;;;24.75;16.48;;;;;;;5.21;nan;102517.75;5053099;28;20037;-53
2022/03/15 05:05:31;;;;;;;24.70;16.33;;;;;;;4.76;nan;102437.84;5052844;28;20041;-53
2022/03/15 05:07:56;;;;;;;28.02;17.33;;;;;;;5.19;nan;102514.25;5052980;28;20472;-53
2022/03/15 05:13:26;;;;;;;27.58;16.38;;;;;;;5.18;nan;102500.31;5008243;28;20034;-52
2022/03/15 05:15:52;;;;;;;24.02;17.30;;;;;;;5.13;nan;102494.13;5010809;28;20121;-57
2022/03/15 05:18:18;;;;;;;24.88;17.17;;;;;;;5.22;nan;102496.91;5013606;28;20487;-53
2022/03/15 05:20:43;;;;;;;30.33;17.83;;;;;;;5.19;nan;102491.63;5034966;28;20029;-49
2022/03/15 05:23:08;;;;;;;28.13;17.65;;;;;;;5.27;nan;102492.63;5052607;28;20029;-53
2022/03/15 05:25:34;;;;;;;28.05;17.85;;;;;;;5.27;nan;102492.63;5052286;28;20041;-49
2022/03/15 05:27:59;;;;;;;33.40;18.40;;;;;;;5.22;nan;102486.47;5050531;28;20090;-50
2022/03/15 05:30:25;;;;;;;27.15;17.42;;;;;;;5.30;nan;102491.78;5034901;28;20036;-54
2022/03/15 05:32:50;;;;;;;32.15;18.00;;;;;;;5.34;nan;102498.81;5052948;28;20103;-49
2022/03/15 05:35:16;;;;;;;29.90;18.20;;;;;;;5.31;nan;102481.34;5053033;28;20033;-53
2022/03/15 05:37:41;;;;;;;33.25;19.75;;;;;;;4.86;nan;102405.84;5034989;28;20037;-48
2022/03/15 05:40:08;;;;;;;30.17;19.63;;;;;;;5.35;nan;102482.28;5052578;28;20041;-49
2022/03/15 05:42:33;;;;;;;30.67;19.70;;;;;;;5.33;nan;102486.63;5055664;28;20388;-55
2022/03/15 05:44:58;;;;;;;35.20;19.58;;;;;;;5.34;nan;102485.78;5034687;28;20037;-51
2022/03/15 05:47:24;;;;;;;31.63;19.48;;;;;;;5.30;nan;102479.63;5052312;28;20060;-53
2022/03/15 05:49:49;;;;;;;33.58;20.25;;;;;;;4.90;nan;102406.78;5052678;28;20069;-53
2022/03/15 05:52:15;;;;;;;37.80;21.35;;;;;;;5.34;nan;102491.00;5051213;28;20044;-54
2022/03/15 05:54:40;;;;;;;33.95;20.88;;;;;;;4.91;nan;102411.13;5052427;28;20061;-50
2022/03/15 05:57:05;;;;;;;33.42;21.90;;;;;;;5.00;nan;102421.72;5052012;28;20033;-51
2022/03/15 05:59:31;;;;;;;29.88;21.70;;;;;;;5.29;nan;102464.78;5052193;28;20453;-51
2022/03/15 06:01:56;;;;;;;35.17;22.95;;;;;;;4.89;nan;102391.97;5052060;28;20041;-50
2022/03/15 06:04:26;;;;;;;39.13;23.10;;;;;;;4.91;nan;102387.63;5052492;28;20037;-51
2022/03/15 06:06:55;;;;;;;35.15;22.38;;;;;;;5.28;nan;102447.41;5052338;28;20388;-50
2022/03/15 06:09:20;;;;;;;36.90;23.85;;;;;;;5.00;nan;102398.22;5051996;28;20360;-50
2022/03/15 06:11:46;;;;;;;36.75;22.88;;;;;;;5.32;nan;102464.84;5034317;28;20037;-52
2022/03/15 06:14:12;;;;;;;36.38;22.35;;;;;;;5.35;nan;102471.84;5051979;28;20033;-52
2022/03/15 06:16:37;;;;;;;34.97;23.70;;;;;;;4.95;nan;102392.06;5051660;28;20036;-50
2022/03/15 06:19:47;;;;;;;39.35;23.33;;;;;;;5.37;nan;102465.78;5053453;28;20461;-54
2022/03/15 06:22:13;;;;;;;43.70;25.52;;;;;;;5.36;nan;102468.38;5050787;28;20362;-53
2022/03/15 06:24:38;;;;;;;37.13;24.05;;;;;;;5.37;nan;102464.94;5051260;28;20036;-51
2022/03/15 06:27:03;;;;;;;35.55;22.88;;;;;;;5.31;nan;102451.78;5050024;28;20048;-54
2022/03/15 06:29:30;;;;;;;36.17;23.63;;;;;;;5.30;nan;102444.78;5071817;28;20044;-55
2022/03/15 06:31:56;;;;;;;40.75;23.92;;;;;;;5.33;nan;102464.00;5071884;28;20180;-49
2022/03/15 06:34:21;;;;;;;36.85;24.65;;;;;;;5.29;nan;102430.84;5071954;28;20040;-51
2022/03/15 06:36:47;;;;;;;41.72;25.30;;;;;;;5.13;nan;102412.34;5072047;28;20070;-50
2022/03/15 06:39:12;;;;;;;39.08;24.88;;;;;;;5.50;nan;102466.84;5075523;28;20043;-52
2022/03/15 06:41:38;;;;;;;35.58;23.17;;;;;;;5.14;nan;102399.28;5076059;28;20077;-53
2022/03/15 06:44:04;;;;;;;31.70;23.67;;;;;;;5.52;nan;102460.78;5075755;28;20035;-55
2022/03/15 06:46:30;;;;;;;43.38;23.88;;;;;;;5.40;nan;102437.09;5036713;28;20041;-52
2022/03/15 06:48:56;;;;;;;40.00;25.33;;;;;;;5.19;nan;102394.16;5055220;28;20416;-51
2022/03/15 06:51:22;;;;;;;40.67;25.88;;;;;;;5.18;nan;102381.94;5036999;28;20095;-49
2022/03/15 06:53:47;;;;;;;38.25;26.10;;;;;;;5.62;nan;102448.72;5054718;28;20032;-50
2022/03/15 06:56:13;;;;;;;38.25;24.48;;;;;;;5.61;nan;102439.13;5055756;28;20041;-53
2022/03/15 06:58:38;;;;;;;47.58;24.90;;;;;;;5.72;nan;102449.75;5055685;28;20033;-53
2022/03/15 07:01:03;;;;;;;37.35;24.92;;;;;;;5.76;nan;102452.41;5055521;28;20033;-53
2022/03/15 07:03:28;;;;;;;40.53;25.75;;;;;;;5.80;nan;102451.59;5037598;28;20037;-52
2022/03/15 07:05:54;;;;;;;40.50;24.95;;;;;;;5.75;nan;102423.66;5020993;28;20123;-54
2022/03/15 07:08:20;;;;;;;34.00;24.13;;;;;;;5.55;nan;102394.63;5037392;28;20032;-57
2022/03/15 07:10:45;;;;;;;36.90;24.13;;;;;;;5.48;nan;102377.16;5055388;28;20029;-51
2022/03/15 07:13:10;;;;;;;37.03;24.73;;;;;;;5.96;nan;102439.59;5037613;28;20123;-51
2022/03/15 07:15:36;;;;;;;38.35;24.05;;;;;;;5.91;nan;102429.09;5037461;28;20186;-50
2022/03/15 07:18:01;;;;;;;42.72;24.73;;;;;;;6.08;nan;102438.00;5055062;28;20033;-51
2022/03/15 07:20:27;;;;;;;36.22;26.35;;;;;;;5.75;nan;102385.31;5055083;28;20040;-53
2022/03/15 07:22:53;;;;;;;36.50;24.25;;;;;;;5.83;nan;102388.03;5054830;28;20464;-53
2022/03/15 07:25:20;;;;;;;39.92;24.75;;;;;;;5.71;nan;102356.53;5055171;28;20094;-53
2022/03/15 07:27:46;;;;;;;33.15;22.75;;;;;;;6.27;nan;102438.22;5054817;28;20049;-56
2022/03/15 07:30:11;;;;;;;36.75;24.98;;;;;;;6.37;nan;102433.09;5037106;28;20032;-54
2022/03/15 07:32:37;;;;;;;36.55;23.40;;;;;;;6.23;nan;102390.25;5054554;28;20037;-53
2022/03/15 07:35:03;;;;;;;34.03;23.63;;;;;;;6.51;nan;102439.34;5054895;28;20064;-51
2022/03/15 07:37:28;;;;;;;34.13;24.33;;;;;;;6.49;nan;102424.50;5036881;28;20039;-54
2022/03/15 07:39:53;;;;;;;30.25;22.48;;;;;;;6.67;nan;102443.88;5037087;28;20383;-53
2022/03/15 07:42:19;;;;;;;35.42;22.73;;;;;;;6.71;nan;102431.69;5054335;28;20037;-53
2022/03/15 07:44:45;;;;;;;33.53;22.77;;;;;;;6.86;nan;102447.50;5054200;28;20039;-54
2022/03/15 07:47:13;;;;;;;33.70;21.73;;;;;;;6.80;nan;102422.16;5054241;28;20056;-53
2022/03/15 07:49:38;;;;;;;29.92;22.27;;;;;;;7.03;nan;102447.66;5052959;28;20029;-48
2022/03/15 07:52:04;;;;;;;32.63;21.77;;;;;;;7.15;nan;102459.06;5053742;28;20316;-54
2022/03/15 07:54:29;;;;;;;34.38;20.83;;;;;;;7.20;nan;102444.28;5054282;28;20040;-55
2022/03/15 07:56:54;;;;;;;34.53;22.13;;;;;;;7.29;nan;102452.22;5054562;28;20037;-53
2022/03/15 07:59:20;;;;;;;29.45;21.08;;;;;;;7.38;nan;102444.38;5054142;28;20045;-56
2022/03/15 08:01:45;;;;;;;32.05;20.10;;;;;;;7.20;nan;102388.41;5054082;28;20036;-51
2022/03/15 08:04:10;;;;;;;27.02;18.50;;;;;;;7.57;nan;102447.13;5054019;28;20040;-52
2022/03/15 08:06:36;;;;;;;30.08;19.25;;;;;;;7.30;nan;102369.25;5036259;28;20040;-54
2022/03/15 08:09:03;;;;;;;25.20;19.05;;;;;;;7.52;nan;102406.94;5054112;28;20040;-53
2022/03/15 08:11:28;;;;;;;31.05;19.73;;;;;;;7.85;nan;102456.91;5054047;28;20399;-55
2022/03/15 08:13:54;;;;;;;26.42;19.25;;;;;;;7.48;nan;102369.34;5054226;28;20043;-56
2022/03/15 08:16:21;;;;;;;24.65;19.02;;;;;;;7.55;nan;102380.75;5054081;28;20053;-54
2022/03/15 08:18:47;;;;;;;25.80;17.60;;;;;;;7.98;nan;102458.69;5036533;28;20456;-53
2022/03/15 08:21:12;;;;;;;28.60;18.33;;;;;;;8.07;nan;102468.31;5053710;28;20039;-55
2022/03/15 08:23:38;;;;;;;29.23;19.10;;;;;;;8.19;nan;102468.38;5053817;28;20116;-52
2022/03/15 08:26:03;;;;;;;25.45;18.65;;;;;;;7.89;nan;102385.22;5053763;28;20036;-56
2022/03/15 08:28:28;;;;;;;27.83;18.45;;;;;;;8.20;nan;102431.66;5053702;28;20362;-55
2022/03/15 08:30:54;;;;;;;25.55;17.67;;;;;;;8.16;nan;102401.06;5053824;28;20033;-55
2022/03/15 08:33:21;;;;;;;25.08;18.90;;;;;;;8.40;nan;102423.88;5036155;28;20087;-55
2022/03/15 08:35:46;;;;;;;27.65;17.77;;;;;;;8.35;nan;102381.88;5035665;28;20078;-54
2022/03/15 08:38:12;;;;;;;24.80;17.17;;;;;;;8.68;nan;102409.91;5052257;28;20052;-55
2022/03/15 08:40:37;;;;;;;26.98;17.67;;;;;;;8.97;nan;102423.00;5053697;28;20045;-54
2022/03/15 08:43:04;;;;;;;28.27;17.23;;;;;;;9.50;nan;102481.63;5053704;28;20041;-53
2022/03/15 08:45:30;;;;;;;22.83;16.08;;;;;;;9.73;nan;102478.06;5053617;28;20029;-53
2022/03/15 08:47:55;;;;;;;26.55;16.67;;;;;;;9.83;nan;102467.53;5035730;28;20444;-55
2022/03/15 08:50:20;;;;;;;22.90;15.70;;;;;;;10.09;nan;102472.69;5053376;28;20049;-53
2022/03/15 08:52:48;;;;;;;20.42;15.30;;;;;;;10.38;nan;102480.44;5053272;28;20037;-51
2022/03/15 08:55:13;;;;;;;19.67;13.95;;;;;;;10.24;nan;102406.84;5035849;28;20399;-55
2022/03/15 08:57:39;;;;;;;24.85;15.38;;;;;;;10.80;nan;102482.78;5053372;28;20043;-55
2022/03/15 09:00:06;;;;;;;24.33;16.25;;;;;;;10.88;nan;102477.50;5053118;28;20051;-52
2022/03/15 09:02:31;;;;;;;23.70;15.10;;;;;;;11.00;nan;102467.75;5035401;28;20123;-55
2022/03/15 09:04:57;;;;;;;21.95;15.10;;;;;;;10.95;nan;102415.94;5018962;28;20492;-52
2022/03/15 09:07:22;;;;;;;21.92;15.20;;;;;;;11.78;nan;102500.41;5035014;28;20464;-53
2022/03/15 09:09:47;;;;;;;22.25;15.48;;;;;;;12.34;nan;102493.56;5053121;28;20035;-55
2022/03/15 09:12:13;;;;;;;17.40;13.23;;;;;;;12.66;nan;102440.25;5018860;28;20037;-54
2022/03/15 09:14:38;;;;;;;18.27;14.73;;;;;;;13.42;nan;102440.72;5052920;28;20033;-53
2022/03/15 09:17:05;;;;;;;19.50;14.73;;;;;;;14.59;nan;102505.34;5052983;28;20032;-54
2022/03/15 09:19:31;;;;;;;21.15;13.35;;;;;;;14.89;nan;102449.88;5035457;28;20060;-51
2022/03/15 09:21:57;;;;;;;17.48;12.95;;;;;;;15.30;nan;102523.09;5034932;28;20477;-57
2022/03/15 09:24:22;;;;;;;17.77;13.25;;;;;;;14.80;nan;102504.00;5052955;28;20082;-51
2022/03/15 09:26:48;;;;;;;18.70;12.43;;;;;;;14.28;nan;102453.06;5052552;28;20083;-56
2022/03/15 09:29:13;;;;;;;19.75;12.45;;;;;;;14.21;nan;102501.78;5052857;28;20041;-56
2022/03/15 09:31:39;;;;;;;19.02;13.05;;;;;;;13.91;nan;102479.44;5052648;28;20116;-55
2022/03/15 09:34:04;;;;;;;13.70;11.75;;;;;;;14.07;nan;102502.06;5052424;28;20041;-53
2022/03/15 09:36:30;;;;;;;16.67;11.85;;;;;;;13.37;nan;102455.78;5052337;28;20025;-54
2022/03/15 09:38:56;;;;;;;19.00;11.68;;;;;;;13.47;nan;102498.81;5052623;28;20121;-56
2022/03/15 09:41:24;;;;;;;17.35;11.02;;;;;;;13.28;nan;102486.84;5034779;28;20032;-54
2022/03/15 09:43:50;;;;;;;13.57;9.55;;;;;;;13.17;nan;102476.44;5052506;28;20024;-53
2022/03/15 09:46:17;;;;;;;17.55;12.13;;;;;;;12.70;nan;102413.75;5052457;28;20033;-54
2022/03/15 09:48:43;;;;;;;15.77;10.75;;;;;;;13.31;nan;102473.56;5051166;28;20041;-53
2022/03/15 09:51:14;;;;;;;14.95;11.10;;;;;;;13.15;nan;102406.84;5034741;28;20115;-52
2022/03/15 09:53:42;;;;;;;16.25;12.07;;;;;;;13.90;nan;102401.81;5052469;28;20388;-54
2022/03/15 09:56:07;;;;;;;19.17;10.52;;;;;;;15.25;nan;102446.28;5052425;28;20037;-52
2022/03/15 09:58:32;;;;;;;15.27;11.23;;;;;;;15.79;nan;102403.25;5052501;28;20044;-56
2022/03/15 10:00:58;;;;;;;17.92;10.80;;;;;;;16.22;nan;102467.47;5034483;28;20036;-56
2022/03/15 10:03:24;;;;;;;16.05;11.52;;;;;;;16.62;nan;102464.47;5052126;28;20075;-53
2022/03/15 10:05:50;;;;;;;13.65;10.00;;;;;;;17.34;nan;102463.81;5034617;28;20086;-56
2022/03/15 10:08:17;;;;;;;12.07;10.15;;;;;;;18.06;nan;102459.47;5034725;28;20033;-54
2022/03/15 10:10:43;;;;;;;13.82;10.13;;;;;;;18.76;nan;102460.25;5052291;28;20087;-53
2022/03/15 10:13:09;;;;;;;10.95;9.82;;;;;;;19.14;nan;102445.31;5051649;28;20060;-52
2022/03/15 10:15:35;;;;;;;13.07;9.55;;;;;;;18.95;nan;102451.44;5052092;28;20037;-53
2022/03/15 10:18:04;;;;;;;13.02;9.23;;;;;;;19.29;nan;102447.34;5034442;28;20419;-55
2022/03/15 10:20:38;;;;;;;13.80;9.25;;;;;;;18.97;nan;102419.34;5052096;28;20124;-55
2022/03/15 10:23:04;;;;;;;12.75;8.98;;;;;;;19.81;nan;102454.81;5034290;28;20059;-56
2022/03/15 10:25:31;;;;;;;12.13;8.90;;;;;;;20.14;nan;102444.34;5051932;28;20469;-56
2022/03/15 10:27:59;;;;;;;11.85;8.77;;;;;;;20.63;nan;102435.78;5051522;28;20063;-55
2022/03/15 10:30:26;;;;;;;14.23;8.18;;;;;;;20.77;nan;102395.81;5051935;28;20095;-56
2022/03/15 10:32:53;;;;;;;10.57;8.75;;;;;;;20.80;nan;102412.63;5050816;28;20060;-54
2022/03/15 10:35:28;;;;;;;13.00;8.55;;;;;;;20.65;nan;102441.91;5052080;28;20036;-54
2022/03/15 10:37:54;;;;;;;11.85;8.00;;;;;;;20.76;nan;102386.03;5050770;28;20029;-55
2022/03/15 10:40:47;;;;;;;11.88;8.38;;;;;;;21.33;nan;102434.03;5017450;28;20123;-55
2022/03/15 10:43:18;;;;;;;12.18;7.90;;;;;;;;;;5051825;28;20118;-53
2022/03/15 10:45:57;;;;;;;13.20;7.95;;;;;;;21.08;nan;102263.94;5052071;28;20039;-55
2022/03/15 10:48:23;;;;;;;12.18;8.57;;;;;;;21.91;nan;102426.47;5051801;28;20029;-57
2022/03/15 10:50:59;;;;;;;12.30;7.72;;;;;;;22.10;nan;102416.44;5051750;28;20506;-59
2022/03/15 10:54:00;;;;;;;10.45;8.13;;;;;;;22.09;nan;102404.88;5051655;28;20051;-53
2022/03/15 10:56:26;;;;;;;12.82;7.28;;;;;;;21.89;nan;102407.75;5031265;28;20049;-56
2022/03/15 10:59:01;;;;;;;11.32;7.00;;;;;;;21.99;nan;102408.13;5033947;28;20481;-54
2022/03/15 11:01:29;;;;;;;11.43;7.18;;;;;;;21.93;nan;102341.44;5051518;28;20033;-56
2022/03/15 11:04:02;;;;;;;8.90;7.15;;;;;;;22.85;nan;102385.22;5050255;28;20082;-57
2022/03/15 11:06:43;;;;;;;8.23;6.15;;;;;;;22.95;nan;102386.44;5051719;28;20029;-53
2022/03/15 11:09:29;;;;;;;8.73;6.55;;;;;;;23.50;nan;102383.09;5051668;28;20068;-53
2022/03/15 11:12:04;;;;;;;11.85;6.13;;;;;;;23.30;nan;102375.38;5051524;28;20028;-54
2022/03/15 11:14:39;;;;;;;10.05;5.65;;;;;;;22.86;nan;102383.41;5034506;28;20033;-58
2022/03/15 11:17:09;;;;;;;9.90;6.45;;;;;;;22.95;nan;102377.50;5051746;28;20028;-59
2022/03/15 11:19:40;;;;;;;6.50;4.70;;;;;;;23.27;nan;102371.03;5051573;28;20083;-56
2022/03/15 11:22:06;;;;;;;7.38;5.07;;;;;;;23.39;nan;102323.78;5050190;28;20124;-55
2022/03/15 11:24:37;;;;;;;8.57;5.30;;;;;;;23.53;nan;102334.50;5051004;28;20029;-58
2022/03/15 11:27:03;;;;;;;10.25;5.38;;;;;;;23.99;nan;102316.31;5054823;28;20068;-58
2022/03/15 11:29:31;;;;;;;7.82;5.00;;;;;;;;;;5037410;28;20071;-56
2022/03/15 11:31:57;;;;;;;6.72;4.28;;;;;;;23.88;nan;102343.91;5055176;28;20029;-56
2022/03/15 11:34:23;;;;;;;7.90;4.88;;;;;;;23.97;nan;102313.72;5053833;28;20048;-53
2022/03/15 11:36:48;;;;;;;7.80;4.35;;;;;;;24.59;nan;102308.69;5054905;28;20480;-57